Strona główna
METAR-TAF:

METAR-TAF

Lotnisko :

Port lotniczy Brive

Brive-la-Gaillarde, Francja

Szerokość geograficzna: 45-02-28N, Długość geograficzna: 001-28-59E, wysokość: 311 m

Aktualna obserwacja pogody

Raport powstał 16 minut temu, godzina 11:30 UTC
Wiatr 3 kt z kierunków zmiennych
Temperatura 3°C
Wilgotność 100%
Ciśnienie 1028 hPa
Widzialność 10 km lub więcej
Mało chmury na wysokości 300 ft

METAR: LFSL 101130Z AUTO VRB03KT 9999 FEW003 03/03 Q1028 NOSIG

czas: 12:46 (11:46 UTC)

Prognoza

Raport powstał 46 minut temu, godzina 11:00 UTC
Prognoza ważna od 10 godzina 12 UTC do 10 godzina 21 UTC
Wiatr 2 kt z kierunków zmiennych
Widzialność 10 km lub więcej
Przerywane chmury na wysokości 500 ft
Stopniowe zmiany
od 10 godzina 12 UTC do 10 godzina 14 UTC
Widzialność 10 km lub więcej
Brak chmur poniżej 1500 m i brak chmur cumulonimbus

TAF: LFSL 101100Z 1012/1021 VRB02KT 9999 BKN005 BECMG 1012/1014 CAVOK

Obserwacja i prognoza pogody dla ponad 4000 lotnisk (raport METAR i TAF).

Dostępne stacje oznaczono żółtymi i czerwonymi punktami na mapie.

Najedź kursorem aby zobaczyć nazwę stacji.

Kliknij aby zobaczyć obserwacje i prognozy pogody.

Aby zmienić mapę: kliknij na zielony przycisk z czarnym krzyżykiem, aby powiększyć; na zielony przycisk z myślnikiem, aby pomniejszyć; na zielone strzałki, aby przejść do map sąsiednich.


METAR-TAF: